Time;durP1;ratioP1;P1;durP2;ratioP2;P2;SDS_P1;SDS_P2;PMS_P1;PMS_P2;Temp;Humidity;BMP_temperature;BMP_pressure;BME280_temperature;BME280_humidity;BME280_pressure;Samples;Min_cycle;Max_cycle;Signal;HPM_P1;HPM_P2
2023/07/08 00:01:49;;;;;;;9.45;6.93;;;;;;;22.63;33.04;95762.66;4951087;28;20742;-83
2023/07/08 00:04:14;;;;;;;8.57;6.93;;;;;;;22.55;33.10;95760.28;4950764;28;20224;-84
2023/07/08 00:06:39;;;;;;;9.13;6.72;;;;;;;22.59;33.14;95754.31;4974267;28;20351;-85
2023/07/08 00:09:10;;;;;;;9.32;7.10;;;;;;;22.59;33.49;95746.38;4975204;28;20210;-85
2023/07/08 00:11:36;;;;;;;9.77;6.90;;;;;;;22.44;33.35;95751.22;4974061;28;20188;-85
2023/07/08 00:14:01;;;;;;;9.77;7.03;;;;;;;22.41;33.41;95750.81;4973153;28;20192;-85
2023/07/08 00:16:26;;;;;;;10.82;7.57;;;;;;;22.50;33.17;95744.22;4958016;28;20263;-85
2023/07/08 00:18:52;;;;;;;8.43;7.38;;;;;;;22.48;33.25;95741.00;4974241;28;20181;-85
2023/07/08 00:21:17;;;;;;;8.93;6.82;;;;;;;22.51;33.15;95746.66;4970539;28;20713;-85
2023/07/08 00:23:50;;;;;;;8.68;6.90;;;;;;;22.41;33.27;95742.88;4974312;28;20634;-85
2023/07/08 00:26:23;;;;;;;9.48;7.00;;;;;;;22.48;33.26;95741.00;4967118;28;20235;-85
2023/07/08 00:28:49;;;;;;;9.65;7.13;;;;;;;22.48;33.40;95736.50;4957006;28;20749;-86
2023/07/08 00:31:14;;;;;;;8.95;7.43;;;;;;;22.43;33.14;95733.69;4957169;28;20216;-85
2023/07/08 00:33:39;;;;;;;11.32;7.00;;;;;;;22.39;33.08;95740.44;4972634;28;20242;-85
2023/07/08 00:36:10;;;;;;;11.00;7.80;;;;;;;22.43;33.12;95748.75;4973022;28;20286;-84
2023/07/08 00:38:35;;;;;;;11.25;7.15;;;;;;;22.35;33.38;95744.53;4973173;28;20187;-83
2023/07/08 00:41:21;;;;;;;12.25;7.47;;;;;;;22.43;33.16;95752.22;4973302;28;20184;-85
2023/07/08 00:43:50;;;;;;;11.18;7.68;;;;;;;22.33;33.19;95750.06;4939401;28;20161;-85
2023/07/08 00:46:29;;;;;;;12.73;7.72;;;;;;;22.40;33.18;95755.28;4953456;28;20213;-85
2023/07/08 00:49:15;;;;;;;10.40;7.07;;;;;;;22.43;32.91;95752.22;4957531;28;20204;-84
2023/07/08 00:51:41;;;;;;;8.20;6.45;;;;;;;22.45;33.05;95746.72;4973267;28;20188;-85
2023/07/08 00:54:14;;;;;;;8.48;7.40;;;;;;;22.41;32.95;95748.16;4956593;28;20195;-85
2023/07/08 00:56:49;;;;;;;8.93;6.93;;;;;;;22.29;33.27;95748.06;4957046;28;20216;-85
2023/07/08 00:59:18;;;;;;;10.02;7.13;;;;;;;22.28;33.29;95757.03;4957828;28;20183;-85
2023/07/08 01:01:43;;;;;;;9.13;6.78;;;;;;;22.25;33.47;95750.31;4973218;28;20188;-84
2023/07/08 01:04:11;;;;;;;12.20;7.22;;;;;;;22.17;33.52;95747.94;4973034;28;20697;-85
2023/07/08 01:06:39;;;;;;;11.93;7.55;;;;;;;22.10;33.65;95739.25;4956896;28;20205;-85
2023/07/08 01:09:06;;;;;;;8.93;7.05;;;;;;;22.09;33.56;95742.94;4956569;28;20200;-85
2023/07/08 01:11:32;;;;;;;10.00;7.45;;;;;;;22.08;33.68;95736.00;4958316;28;20216;-85
2023/07/08 01:13:58;;;;;;;8.90;6.88;;;;;;;22.01;33.90;95733.41;4956104;28;20200;-85
2023/07/08 01:16:24;;;;;;;10.40;7.45;;;;;;;21.96;34.34;95735.03;4972933;28;20208;-85
2023/07/08 01:18:52;;;;;;;9.40;6.60;;;;;;;22.03;33.76;95738.47;4972894;28;20548;-85
2023/07/08 01:21:30;;;;;;;11.55;7.00;;;;;;;21.99;33.87;95734.59;4973060;28;20181;-86
2023/07/08 01:23:56;;;;;;;10.75;7.40;;;;;;;22.02;33.89;95734.19;4956623;28;20192;-85
2023/07/08 01:26:25;;;;;;;9.13;7.35;;;;;;;22.03;33.95;95735.81;4976341;28;20207;-85
2023/07/08 01:28:52;;;;;;;9.57;6.95;;;;;;;21.98;33.80;95731.16;4972783;28;20252;-86
2023/07/08 01:31:17;;;;;;;14.15;8.00;;;;;;;22.05;33.54;95731.94;4959759;28;20189;-85
2023/07/08 01:33:43;;;;;;;12.48;7.93;;;;;;;22.02;33.47;95724.44;4960252;28;20189;-85
2023/07/08 01:36:10;;;;;;;12.23;6.72;;;;;;;22.08;33.51;95724.63;4976464;28;20212;-86
2023/07/08 01:38:36;;;;;;;9.18;6.90;;;;;;;22.07;33.35;95729.09;4976579;28;20181;-86
2023/07/08 01:41:01;;;;;;;10.18;6.90;;;;;;;22.00;33.52;95734.41;4977363;28;20207;-84
2023/07/08 01:43:26;;;;;;;10.32;7.60;;;;;;;22.02;33.71;95732.38;4976647;28;20189;-86
2023/07/08 01:45:52;;;;;;;9.80;7.22;;;;;;;21.99;33.60;95731.97;4976873;28;20227;-85
2023/07/08 01:48:19;;;;;;;13.30;6.95;;;;;;;21.95;33.74;95730.78;4982257;28;20289;-85
2023/07/08 01:50:55;;;;;;;10.93;7.80;;;;;;;21.96;33.72;95732.41;4964464;28;20189;-86
2023/07/08 01:53:29;;;;;;;7.57;6.75;;;;;;;21.86;33.92;95726.78;4982891;28;20175;-84
2023/07/08 01:55:54;;;;;;;8.52;6.85;;;;;;;21.95;33.86;95725.50;4963692;28;20240;-85
2023/07/08 01:58:19;;;;;;;8.70;7.00;;;;;;;21.90;33.78;95727.97;4977429;28;20239;-85
2023/07/08 02:00:48;;;;;;;10.73;7.75;;;;;;;21.84;33.90;95720.91;4979469;28;20187;-84
2023/07/08 02:03:13;;;;;;;11.68;7.18;;;;;;;21.74;34.50;95724.81;4977098;28;20189;-84
2023/07/08 02:05:38;;;;;;;9.90;6.72;;;;;;;21.73;34.40;95722.38;4978864;28;20228;-85
2023/07/08 02:08:04;;;;;;;9.90;6.43;;;;;;;21.70;34.57;95722.81;4977966;28;20240;-85
2023/07/08 02:10:29;;;;;;;8.75;7.43;;;;;;;21.67;34.53;95726.69;4975863;28;20247;-85
2023/07/08 02:12:55;;;;;;;10.05;7.90;;;;;;;21.64;34.76;95729.75;4976921;28;20279;-84
2023/07/08 02:15:20;;;;;;;8.52;7.18;;;;;;;21.65;34.57;95738.50;4960660;28;20209;-85
2023/07/08 02:17:45;;;;;;;10.82;7.45;;;;;;;21.63;34.67;95741.34;4975381;28;20733;-85
2023/07/08 02:20:11;;;;;;;9.80;7.63;;;;;;;21.62;34.95;95742.38;4958918;28;20219;-85
2023/07/08 02:22:36;;;;;;;9.57;7.70;;;;;;;21.54;34.72;95739.97;4959333;28;20219;-84
2023/07/08 02:25:02;;;;;;;9.95;6.82;;;;;;;21.49;35.02;95732.69;4974908;28;20206;-85
2023/07/08 02:27:27;;;;;;;10.95;6.93;;;;;;;21.61;34.75;95739.94;4959280;28;20188;-85
2023/07/08 02:29:52;;;;;;;9.82;6.95;;;;;;;21.67;34.31;95733.81;4975061;28;20224;-85
2023/07/08 02:32:18;;;;;;;11.52;8.18;;;;;;;21.59;34.63;95736.69;4975316;28;20637;-85
2023/07/08 02:34:43;;;;;;;9.07;7.22;;;;;;;21.59;34.70;95740.16;4974425;28;20837;-85
2023/07/08 02:37:09;;;;;;;12.00;7.45;;;;;;;21.52;34.72;95738.56;4975980;28;20560;-86
2023/07/08 02:39:34;;;;;;;9.93;7.18;;;;;;;21.55;34.48;95736.28;4975706;28;20561;-85
2023/07/08 02:42:00;;;;;;;10.75;7.18;;;;;;;21.63;34.68;95738.69;4959377;28;20721;-84
2023/07/08 02:44:26;;;;;;;8.13;6.60;;;;;;;21.66;34.60;95742.78;4942942;28;20188;-83
2023/07/08 02:46:51;;;;;;;9.88;6.97;;;;;;;21.59;34.96;95742.00;4975534;28;20271;-83
2023/07/08 02:49:17;;;;;;;8.95;7.25;;;;;;;21.72;34.61;95745.34;4975055;28;20581;-83
2023/07/08 02:51:42;;;;;;;9.35;7.55;;;;;;;21.73;34.30;95740.88;4974795;28;20199;-85
2023/07/08 02:54:07;;;;;;;8.82;7.25;;;;;;;21.72;34.30;95739.25;4974584;28;20188;-85
2023/07/08 02:56:32;;;;;;;9.35;6.93;;;;;;;21.73;34.46;95740.88;4974928;28;20227;-85
2023/07/08 02:58:58;;;;;;;9.23;7.65;;;;;;;21.62;35.03;95741.56;4975092;28;20188;-84
2023/07/08 03:01:23;;;;;;;10.80;6.72;;;;;;;21.52;35.01;95751.78;4975338;28;20259;-84
2023/07/08 03:03:49;;;;;;;10.25;6.90;;;;;;;21.58;35.19;95751.75;4975081;28;20184;-84
2023/07/08 03:06:15;;;;;;;10.07;7.18;;;;;;;21.67;34.96;95761.03;4974794;28;20216;-85
2023/07/08 03:08:40;;;;;;;8.85;6.95;;;;;;;21.60;34.84;95760.25;4958746;28;20711;-85
2023/07/08 03:11:07;;;;;;;10.20;6.78;;;;;;;21.49;35.18;95755.66;4975031;28;20188;-83
2023/07/08 03:13:34;;;;;;;11.13;7.60;;;;;;;21.55;35.24;95764.56;4973773;28;20570;-84
2023/07/08 03:16:00;;;;;;;10.95;6.85;;;;;;;21.35;35.96;95762.00;4974510;28;20209;-84
2023/07/08 03:18:26;;;;;;;8.73;6.68;;;;;;;21.42;35.81;95752.22;4974743;28;20185;-84
2023/07/08 03:20:55;;;;;;;10.02;7.13;;;;;;;21.46;35.84;95745.50;4958471;28;20196;-84
2023/07/08 03:23:21;;;;;;;12.18;8.40;;;;;;;21.49;35.92;95737.97;4958737;28;20377;-84
2023/07/08 03:25:47;;;;;;;7.53;6.28;;;;;;;21.46;35.78;95748.94;4973865;28;20315;-83
2023/07/08 03:28:14;;;;;;;11.68;7.22;;;;;;;21.40;36.02;95747.16;4974237;28;20211;-83
2023/07/08 03:30:44;;;;;;;8.65;6.85;;;;;;;21.44;36.23;95740.41;4974773;28;20487;-84
2023/07/08 03:33:10;;;;;;;11.23;7.72;;;;;;;21.47;35.93;95747.94;4973806;28;20263;-83
2023/07/08 03:35:36;;;;;;;10.65;7.70;;;;;;;21.49;36.12;95748.53;4957698;28;20204;-84
2023/07/08 03:38:02;;;;;;;9.80;7.50;;;;;;;21.50;35.89;95738.78;4958404;28;20181;-84
2023/07/08 03:40:28;;;;;;;10.20;7.35;;;;;;;21.56;35.86;95735.31;4957728;28;20275;-85
2023/07/08 03:42:53;;;;;;;11.88;7.97;;;;;;;21.64;35.79;95744.78;4973818;28;20385;-84
2023/07/08 03:45:18;;;;;;;12.50;7.82;;;;;;;21.65;36.02;95747.25;4973646;28;20636;-84
2023/07/08 03:47:44;;;;;;;10.95;7.40;;;;;;;21.57;36.27;95739.56;4972931;28;20554;-85
2023/07/08 03:50:17;;;;;;;10.43;7.20;;;;;;;21.67;35.85;95742.56;4974021;28;20680;-85
2023/07/08 03:52:43;;;;;;;10.13;7.25;;;;;;;21.88;35.58;95745.88;4970039;28;20203;-85
2023/07/08 03:55:10;;;;;;;9.05;7.00;;;;;;;21.87;35.66;95746.91;4957150;28;20682;-83
2023/07/08 03:57:35;;;;;;;11.63;7.10;;;;;;;21.96;35.43;95759.66;4973834;28;20300;-85
2023/07/08 04:00:01;;;;;;;8.77;7.60;;;;;;;22.47;34.41;95758.72;4957600;28;20200;-84
2023/07/08 04:02:26;;;;;;;8.18;6.88;;;;;;;23.63;32.48;95760.56;4974518;28;20192;-84
2023/07/08 04:04:51;;;;;;;8.05;6.85;;;;;;;24.23;31.54;95754.44;4973720;28;20559;-84
2023/07/08 04:07:17;;;;;;;10.48;6.93;;;;;;;24.74;30.76;95748.53;4973431;28;20203;-85
2023/07/08 04:09:43;;;;;;;9.65;6.97;;;;;;;25.07;30.50;95753.25;4973076;28;20212;-85
2023/07/08 04:12:09;;;;;;;8.38;6.93;;;;;;;25.60;29.54;95751.38;4973494;28;20192;-85
2023/07/08 04:14:35;;;;;;;9.77;6.90;;;;;;;25.51;29.58;95748.28;4972775;28;20207;-85
2023/07/08 04:17:00;;;;;;;7.95;6.75;;;;;;;24.78;30.71;95757.63;4973548;28;20678;-85
2023/07/08 04:19:26;;;;;;;9.00;6.90;;;;;;;25.10;30.24;95759.97;4956863;28;20188;-85
2023/07/08 04:21:52;;;;;;;11.07;7.55;;;;;;;24.92;30.27;95752.91;4941598;28;20220;-85
2023/07/08 04:24:18;;;;;;;9.68;7.18;;;;;;;24.61;31.09;95746.06;4956771;28;20487;-85
2023/07/08 04:26:46;;;;;;;8.85;7.55;;;;;;;24.60;30.99;95743.66;4956827;28;20204;-85
2023/07/08 04:29:22;;;;;;;10.85;6.97;;;;;;;25.57;29.97;95744.69;4973038;28;20228;-85
2023/07/08 04:31:47;;;;;;;10.52;6.78;;;;;;;25.12;30.17;95737.41;4957494;28;20599;-84
2023/07/08 04:34:13;;;;;;;9.77;7.10;;;;;;;24.57;31.31;95745.75;4956640;28;20188;-84
2023/07/08 04:36:39;;;;;;;12.75;7.07;;;;;;;23.92;32.69;95747.53;4940593;28;20723;-84
2023/07/08 04:39:06;;;;;;;9.10;7.00;;;;;;;23.73;32.83;95746.78;4957724;28;20176;-84
2023/07/08 04:41:31;;;;;;;10.15;7.03;;;;;;;23.56;33.04;95756.34;4956907;28;20200;-85
2023/07/08 04:43:57;;;;;;;9.00;6.70;;;;;;;23.23;34.22;95757.56;4972386;28;20705;-84
2023/07/08 04:46:38;;;;;;;8.88;6.32;;;;;;;23.33;33.79;95760.53;4972901;28;20208;-85
2023/07/08 04:49:05;;;;;;;10.05;6.55;;;;;;;23.66;33.17;95764.63;4953722;28;20243;-85
2023/07/08 04:51:31;;;;;;;9.27;6.50;;;;;;;23.68;33.17;95773.19;4972424;28;20196;-85
2023/07/08 04:53:56;;;;;;;9.55;6.78;;;;;;;24.02;33.02;95766.34;4956573;28;20196;-84
2023/07/08 04:56:23;;;;;;;10.82;6.40;;;;;;;25.32;31.10;95774.22;4940595;28;20303;-85
2023/07/08 04:58:48;;;;;;;12.73;6.53;;;;;;;26.57;29.33;95774.44;4973009;28;20189;-85
2023/07/08 05:01:14;;;;;;;9.00;5.90;;;;;;;29.03;26.34;95778.59;4974926;28;20247;-84
2023/07/08 05:03:39;;;;;;;11.80;6.15;;;;;;;30.22;24.91;95775.38;4972915;28;20185;-85
2023/07/08 05:06:04;;;;;;;7.72;5.80;;;;;;;31.87;22.89;95783.72;4972988;28;20204;-86
2023/07/08 05:08:30;;;;;;;7.32;5.75;;;;;;;33.19;21.96;95788.13;4956832;28;20212;-85
2023/07/08 05:10:55;;;;;;;6.32;5.30;;;;;;;33.62;21.00;95785.53;4973425;28;20230;-86
2023/07/08 05:13:21;;;;;;;9.13;5.88;;;;;;;33.20;21.82;95793.22;4973018;28;20226;-87
2023/07/08 05:15:48;;;;;;;9.00;4.47;;;;;;;33.60;21.58;95788.53;4972714;28;20207;-86
2023/07/08 05:18:13;;;;;;;6.53;4.82;;;;;;;34.78;20.38;95793.09;4965774;28;20726;-86
2023/07/08 05:20:38;;;;;;;7.72;3.83;;;;;;;35.14;20.18;95791.41;4972950;28;20261;-85
2023/07/08 05:23:04;;;;;;;5.70;3.92;;;;;;;35.47;19.80;95791.38;4956240;28;20231;-84
2023/07/08 05:25:31;;;;;;;7.57;3.67;;;;;;;33.13;22.37;95792.78;4971638;28;20628;-85
2023/07/08 05:27:57;;;;;;;5.90;4.10;;;;;;;33.89;21.79;95803.81;4973382;28;20198;-84
2023/07/08 05:30:22;;;;;;;6.85;3.30;;;;;;;33.00;22.24;95804.19;4956530;28;20302;-84
2023/07/08 05:32:47;;;;;;;5.18;3.70;;;;;;;32.76;23.68;95820.25;4953884;28;20184;-78
2023/07/08 05:35:13;;;;;;;6.10;3.45;;;;;;;34.21;21.66;95817.41;4954603;28;20196;-77
2023/07/08 05:37:39;;;;;;;5.28;4.07;;;;;;;34.13;21.98;95819.94;4971419;28;20210;-78
2023/07/08 05:40:06;;;;;;;7.22;4.18;;;;;;;33.30;22.78;95813.84;4970589;28;20227;-77
2023/07/08 05:42:32;;;;;;;5.50;3.53;;;;;;;34.88;20.60;95822.59;4954865;28;20216;-80
2023/07/08 05:44:57;;;;;;;5.25;4.07;;;;;;;35.70;20.51;95828.19;4954353;28;20180;-81
2023/07/08 05:47:23;;;;;;;5.32;4.03;;;;;;;37.24;18.97;95834.47;4954971;28;20215;-81
2023/07/08 05:49:48;;;;;;;6.40;4.00;;;;;;;35.55;20.67;95836.59;4971113;28;20290;-81
2023/07/08 05:52:14;;;;;;;6.57;4.20;;;;;;;34.83;20.57;95830.78;4954100;28;20288;-81
2023/07/08 05:54:41;;;;;;;5.95;4.10;;;;;;;34.30;20.28;95831.03;4968517;28;20203;-81
2023/07/08 05:57:07;;;;;;;7.95;4.53;;;;;;;33.65;21.08;95826.16;4953619;28;20191;-82
2023/07/08 05:59:34;;;;;;;7.80;4.70;;;;;;;33.75;21.11;95836.03;4953918;28;20312;-81
2023/07/08 06:01:59;;;;;;;6.68;4.30;;;;;;;34.04;21.08;95839.44;4971687;28;20567;-80
2023/07/08 06:04:25;;;;;;;6.15;4.50;;;;;;;35.82;19.46;95851.19;4969542;28;20184;-80
2023/07/08 06:06:50;;;;;;;9.90;5.20;;;;;;;36.70;18.76;95863.38;4970760;28;20204;-80
2023/07/08 06:09:15;;;;;;;7.95;6.18;;;;;;;34.48;21.07;95868.00;4970903;28;20208;-81
2023/07/08 06:11:41;;;;;;;6.03;5.43;;;;;;;34.41;21.32;95867.56;4972217;28;20192;-80
2023/07/08 06:14:06;;;;;;;9.75;5.35;;;;;;;33.67;22.08;95859.00;4957670;28;20223;-79
2023/07/08 06:16:31;;;;;;;6.28;5.43;;;;;;;33.71;21.50;95864.59;4974287;28;20213;-80
2023/07/08 06:18:57;;;;;;;6.72;5.57;;;;;;;35.41;19.66;95863.56;4958118;28;20578;-81
2023/07/08 06:21:23;;;;;;;7.32;6.22;;;;;;;36.15;18.72;95871.63;4973734;28;20222;-80
2023/07/08 06:23:49;;;;;;;6.75;5.10;;;;;;;36.93;17.77;95868.81;4949360;28;20192;-80
2023/07/08 06:26:15;;;;;;;7.35;5.50;;;;;;;36.91;17.53;95873.75;4954319;28;20251;-80
2023/07/08 06:28:40;;;;;;;5.13;4.50;;;;;;;36.14;18.83;95875.44;4971939;28;20247;-80
2023/07/08 06:31:06;;;;;;;7.93;4.95;;;;;;;36.53;18.39;95884.88;4971323;28;20209;-80
2023/07/08 06:33:31;;;;;;;5.53;5.03;;;;;;;36.19;18.55;95879.91;4970690;28;20219;-82
2023/07/08 06:35:56;;;;;;;6.05;5.10;;;;;;;35.03;20.08;95876.34;4970233;28;20209;-81
2023/07/08 06:38:22;;;;;;;7.53;6.40;;;;;;;35.63;19.11;95873.69;4973695;28;20232;-80
2023/07/08 06:40:47;;;;;;;7.05;6.13;;;;;;;32.27;22.40;95874.84;4972658;28;20195;-80
2023/07/08 06:43:12;;;;;;;8.63;7.82;;;;;;;31.80;22.79;95869.94;4956349;28;20207;-81
2023/07/08 06:45:38;;;;;;;8.95;6.35;;;;;;;29.90;25.37;95876.19;4972683;28;20697;-81
2023/07/08 06:48:03;;;;;;;9.00;7.00;;;;;;;29.13;27.38;95884.00;4970941;28;20192;-81
2023/07/08 06:50:28;;;;;;;8.48;6.10;;;;;;;28.29;28.78;95877.34;4941139;28;20228;-81
2023/07/08 06:52:54;;;;;;;10.82;6.60;;;;;;;27.89;28.82;95885.66;4972071;28;20275;-81
2023/07/08 06:55:19;;;;;;;7.80;6.75;;;;;;;28.16;29.42;95880.38;4926198;28;20227;-81
2023/07/08 06:57:44;;;;;;;8.10;6.35;;;;;;;28.19;29.38;95878.03;4958018;28;20256;-81
2023/07/08 07:00:11;;;;;;;7.38;6.10;;;;;;;28.61;28.96;95884.59;4971545;28;20182;-81
2023/07/08 07:02:37;;;;;;;10.43;6.05;;;;;;;28.63;29.19;95888.66;4942517;28;20185;-81
2023/07/08 07:05:03;;;;;;;7.28;5.90;;;;;;;28.13;30.51;95888.88;4954933;28;20687;-81
2023/07/08 07:07:29;;;;;;;7.97;4.63;;;;;;;27.15;34.01;95882.47;4973580;28;20195;-80
2023/07/08 07:09:54;;;;;;;4.65;3.92;;;;;;;27.26;34.52;95892.25;4973561;28;20197;-79
2023/07/08 07:12:20;;;;;;;5.05;4.13;;;;;;;27.73;34.18;95886.50;4975779;28;20244;-80
2023/07/08 07:14:45;;;;;;;7.20;4.15;;;;;;;27.87;34.15;95885.91;4974248;28;20195;-80
2023/07/08 07:17:10;;;;;;;8.27;4.18;;;;;;;27.80;33.67;95882.63;4974987;28;20181;-79
2023/07/08 07:19:36;;;;;;;7.63;3.53;;;;;;;28.28;33.47;95885.59;4974167;28;20203;-80
2023/07/08 07:22:02;;;;;;;7.82;4.00;;;;;;;28.81;32.46;95894.69;4959652;28;20791;-80
2023/07/08 07:24:28;;;;;;;5.32;3.92;;;;;;;28.41;33.05;95891.34;4959696;28;20706;-79
2023/07/08 07:26:53;;;;;;;72.25;6.55;;;;;;;29.46;31.96;95890.91;4973534;28;20269;-80
2023/07/08 07:29:22;;;;;;;104.22;8.35;;;;;;;30.38;29.88;95890.28;4973186;28;20226;-83
2023/07/08 07:31:47;;;;;;;24.85;3.95;;;;;;;30.56;29.65;95889.00;4926309;28;20327;-81
2023/07/08 07:34:14;;;;;;;89.60;7.93;;;;;;;30.40;30.43;95893.53;4940504;28;20634;-82
2023/07/08 07:36:39;;;;;;;31.55;5.13;;;;;;;30.82;29.19;95886.38;4972553;28;20204;-80
2023/07/08 07:39:04;;;;;;;5.47;3.38;;;;;;;31.79;26.53;95895.97;4974124;28;20184;-81
2023/07/08 07:41:30;;;;;;;7.13;3.28;;;;;;;32.96;25.90;95902.69;4974110;28;20193;-81
2023/07/08 07:43:55;;;;;;;6.15;3.95;;;;;;;33.81;24.29;95892.22;4972710;28;20189;-78
2023/07/08 07:46:21;;;;;;;5.22;3.70;;;;;;;33.83;23.63;95894.63;4972834;28;20200;-82
2023/07/08 07:48:46;;;;;;;6.40;3.70;;;;;;;34.14;24.56;95897.00;4956495;28;20208;-80
2023/07/08 07:51:12;;;;;;;7.22;4.10;;;;;;;34.46;23.12;95899.84;4972671;28;20284;-79
2023/07/08 07:53:38;;;;;;;7.90;3.80;;;;;;;33.70;24.54;95900.69;4966224;28;20189;-80
2023/07/08 07:56:03;;;;;;;4.75;3.55;;;;;;;34.96;23.21;95904.78;4953908;28;20231;-79
2023/07/08 07:58:29;;;;;;;3.92;3.17;;;;;;;33.77;23.95;95899.28;4949863;28;20786;-79
2023/07/08 08:00:55;;;;;;;4.72;3.45;;;;;;;32.71;24.99;95903.66;4968309;28;20180;-81
2023/07/08 08:03:21;;;;;;;4.68;3.50;;;;;;;32.53;25.96;95898.94;4929220;28;20270;-80
2023/07/08 08:05:46;;;;;;;5.63;3.03;;;;;;;33.55;24.01;95887.38;4950482;28;20258;-79
2023/07/08 08:08:12;;;;;;;4.82;2.90;;;;;;;33.69;23.96;95897.22;4965421;28;20177;-80
2023/07/08 08:10:37;;;;;;;3.85;3.03;;;;;;;32.87;25.05;95894.44;4969780;28;20184;-80
2023/07/08 08:13:03;;;;;;;4.10;3.33;;;;;;;33.72;23.85;95903.91;4967874;28;20188;-79
2023/07/08 08:15:28;;;;;;;3.13;2.75;;;;;;;33.90;23.28;95903.19;4968255;28;20227;-81
2023/07/08 08:17:54;;;;;;;4.05;2.85;;;;;;;34.32;22.85;95904.31;4969044;28;20181;-81
2023/07/08 08:20:21;;;;;;;4.63;2.97;;;;;;;32.06;24.15;95905.56;4938067;28;20208;-80
2023/07/08 08:22:46;;;;;;;4.28;2.58;;;;;;;33.30;23.79;95894.59;4969185;28;20264;-80
2023/07/08 08:25:12;;;;;;;4.63;2.92;;;;;;;33.54;23.53;95897.34;4952220;28;21189;-80
2023/07/08 08:27:37;;;;;;;137.75;9.52;;;;;;;33.62;23.02;95893.25;4951001;28;20176;-79
2023/07/08 08:30:05;;;;;;;89.07;7.20;;;;;;;33.27;22.58;95892.47;4951035;28;20211;-79
2023/07/08 08:32:30;;;;;;;354.17;22.67;;;;;;;33.62;22.54;95898.63;4946523;28;20192;-80
2023/07/08 08:34:55;;;;;;;236.80;14.13;;;;;;;33.29;23.60;95895.69;4951381;28;20651;-81
2023/07/08 08:37:21;;;;;;;32.00;4.25;;;;;;;33.09;23.72;95893.97;4939983;28;20188;-80
2023/07/08 08:39:46;;;;;;;13.02;3.10;;;;;;;33.55;23.02;95892.78;4972841;28;20259;-82
2023/07/08 08:42:32;;;;;;;3.47;2.50;;;;;;;33.46;22.31;95893.38;4971550;28;20190;-82
2023/07/08 08:44:59;;;;;;;5.90;4.78;;;;;;;33.08;25.01;95903.13;4971219;28;20184;-81
2023/07/08 08:47:45;;;;;;;8.32;4.82;;;;;;;31.23;28.50;95893.38;4955753;28;20546;-82
2023/07/08 08:50:24;;;;;;;8.43;5.35;;;;;;;30.81;29.02;95892.81;4948393;28;20630;-83
2023/07/08 08:52:50;;;;;;;7.38;5.20;;;;;;;30.61;28.83;95891.69;4971168;28;20185;-79
2023/07/08 08:55:16;;;;;;;8.98;5.45;;;;;;;30.29;29.06;95894.56;4937511;28;20217;-79
2023/07/08 08:58:02;;;;;;;6.95;6.25;;;;;;;29.80;30.26;95910.16;4971814;28;20189;-79
2023/07/08 09:00:45;;;;;;;6.28;5.57;;;;;;;28.97;31.40;95901.78;4954469;28;20184;-79
2023/07/08 09:03:15;;;;;;;8.65;5.97;;;;;;;29.34;30.44;95899.16;4955803;28;20207;-78
2023/07/08 09:05:42;;;;;;;7.43;5.38;;;;;;;29.10;31.27;95906.72;4971730;28;20219;-79
2023/07/08 09:08:25;;;;;;;8.13;5.75;;;;;;;29.63;30.33;95901.50;4972451;28;20192;-78
2023/07/08 09:11:13;;;;;;;9.45;5.25;;;;;;;29.92;29.89;95910.72;4956346;28;20816;-79
2023/07/08 09:13:38;;;;;;;11.90;6.03;;;;;;;29.51;29.74;95915.88;4970847;28;20211;-78
2023/07/08 09:16:20;;;;;;;7.97;5.53;;;;;;;29.53;30.31;95913.75;4972119;28;20208;-78
2023/07/08 09:19:11;;;;;;;7.50;5.53;;;;;;;30.29;30.00;95902.59;4955721;28;20226;-82
2023/07/08 09:21:55;;;;;;;7.95;5.53;;;;;;;30.64;28.40;95914.47;4959324;28;20323;-83
2023/07/08 09:24:51;;;;;;;10.88;4.97;;;;;;;30.20;29.47;95914.09;4955144;28;20196;-81
2023/07/08 09:27:17;;;;;;;225.43;17.83;;;;;;;30.31;28.44;95907.72;4940717;28;20201;-83
2023/07/08 09:29:42;;;;;;;11.38;5.32;;;;;;;30.28;29.35;95914.38;4955324;28;20219;-81
2023/07/08 09:32:23;;;;;;;7.65;5.15;;;;;;;29.47;29.79;95908.59;4970669;28;20187;-81
2023/07/08 09:34:54;;;;;;;6.95;5.28;;;;;;;29.50;29.65;95911.56;4938047;28;20665;-81
2023/07/08 09:37:28;;;;;;;7.13;5.10;;;;;;;30.21;29.51;95905.78;4955000;28;20203;-81
2023/07/08 09:39:55;;;;;;;6.05;5.18;;;;;;;30.11;29.10;95903.06;4969818;28;20239;-81
2023/07/08 09:42:23;;;;;;;8.02;4.95;;;;;;;30.45;28.71;95911.50;4954957;28;20223;-81
2023/07/08 09:44:57;;;;;;;7.32;4.47;;;;;;;30.23;27.89;95908.22;4970868;28;20180;-81
2023/07/08 09:47:30;;;;;;;8.65;5.00;;;;;;;31.08;27.65;95906.75;4958274;28;20392;-80
2023/07/08 09:49:57;;;;;;;5.85;4.65;;;;;;;30.67;27.59;95904.06;4941538;28;20217;-82
2023/07/08 09:52:22;;;;;;;8.77;5.22;;;;;;;30.18;28.80;95904.44;4952756;28;20654;-81
2023/07/08 09:54:47;;;;;;;10.73;5.18;;;;;;;29.63;29.98;95901.50;4975464;28;20231;-81
2023/07/08 09:57:32;;;;;;;7.25;4.97;;;;;;;30.63;27.83;95911.00;4974727;28;20713;-82
2023/07/08 10:00:03;;;;;;;7.43;4.50;;;;;;;30.83;27.15;95901.38;4977278;28;20184;-80
2023/07/08 10:02:32;;;;;;;6.07;3.88;;;;;;;31.26;26.71;95902.75;4958714;28;20728;-81
2023/07/08 10:05:01;;;;;;;5.25;3.50;;;;;;;31.34;26.39;95904.09;4972823;28;20717;-81
2023/07/08 10:07:30;;;;;;;5.05;3.60;;;;;;;31.19;26.99;95903.03;4957332;28;20269;-81
2023/07/08 10:09:58;;;;;;;5.25;3.80;;;;;;;31.44;26.57;95904.09;4973761;28;20215;-82
2023/07/08 10:12:23;;;;;;;7.82;4.25;;;;;;;31.74;25.28;95904.03;4974348;28;20192;-81
2023/07/08 10:14:52;;;;;;;7.25;4.70;;;;;;;30.91;27.88;95909.72;4957729;28;20188;-84
2023/07/08 10:17:19;;;;;;;7.80;4.65;;;;;;;30.74;28.08;95906.47;4974202;28;20180;-80
2023/07/08 10:19:44;;;;;;;7.55;4.68;;;;;;;31.29;27.80;95911.09;4959231;28;20181;-84
2023/07/08 10:22:40;;;;;;;6.75;4.60;;;;;;;30.51;28.56;95907.75;4957173;28;20776;-80
2023/07/08 10:25:20;;;;;;;6.15;4.93;;;;;;;30.94;28.07;95905.72;4972935;28;20211;-81
2023/07/08 10:28:31;;;;;;;4.75;3.97;;;;;;;30.70;27.72;95903.53;4957589;28;20187;-81
2023/07/08 10:31:11;;;;;;;5.60;4.25;;;;;;;30.54;28.18;95898.38;4939907;29;20212;-81
2023/07/08 10:33:52;;;;;;;5.75;3.97;;;;;;;30.55;27.68;95899.97;4944596;29;20256;-81
2023/07/08 10:36:41;;;;;;;5.03;4.13;;;;;;;31.05;27.11;95907.31;4934126;29;20297;-82
2023/07/08 10:39:09;;;;;;;10.65;4.00;;;;;;;30.85;27.20;95912.69;4934242;29;20186;-81
2023/07/08 10:41:53;;;;;;;6.47;3.95;;;;;;;30.90;27.90;95909.97;4937410;29;20201;-81
2023/07/08 10:44:27;;;;;;;6.55;4.05;;;;;;;31.46;27.14;95902.75;4906089;29;20311;-81
2023/07/08 10:47:22;;;;;;;7.50;3.80;;;;;;;31.22;27.45;95910.56;4913917;29;20695;-81
2023/07/08 10:50:03;;;;;;;6.82;4.03;;;;;;;31.70;26.78;95912.91;4898189;29;20249;-82
2023/07/08 10:52:48;;;;;;;6.50;4.00;;;;;;;31.52;27.30;95909.72;4898509;29;20195;-82
2023/07/08 10:55:19;;;;;;;5.82;3.60;;;;;;;31.73;26.88;95917.75;4904816;29;20291;-82
2023/07/08 10:57:59;;;;;;;6.07;4.25;;;;;;;31.89;26.80;95913.13;4914471;29;20191;-81
2023/07/08 11:00:33;;;;;;;31.60;5.13;;;;;;;32.63;26.39;95915.00;4914725;29;20683;-81
2023/07/08 11:03:17;;;;;;;6.05;4.15;;;;;;;33.03;25.40;95907.75;4882028;29;20228;-82
2023/07/08 11:05:47;;;;;;;9.50;4.00;;;;;;;33.01;25.05;95916.09;4878187;29;20203;-81
2023/07/08 11:08:29;;;;;;;6.07;3.58;;;;;;;33.19;24.91;95914.59;4914753;29;20256;-81
2023/07/08 11:11:15;;;;;;;5.30;3.50;;;;;;;32.86;25.77;95919.69;4939455;29;20193;-80
2023/07/08 11:13:51;;;;;;;5.43;3.88;;;;;;;32.66;26.24;95915.22;4941919;29;20205;-80
2023/07/08 11:16:30;;;;;;;13.10;3.53;;;;;;;32.23;25.48;95916.78;4942451;29;20198;-80
2023/07/08 11:19:02;;;;;;;6.43;3.42;;;;;;;31.49;26.90;95920.19;4942942;29;20201;-80
2023/07/08 11:21:37;;;;;;;6.47;3.60;;;;;;;31.33;27.14;95905.97;4936399;29;20209;-79
2023/07/08 11:24:11;;;;;;;4.90;3.42;;;;;;;31.39;27.71;95912.97;4920820;29;20193;-82
2023/07/08 11:26:42;;;;;;;9.25;6.60;;;;;;;31.95;26.31;95910.16;4941762;28;20240;-82
2023/07/08 11:29:18;;;;;;;4.97;3.30;;;;;;;32.44;25.59;95919.41;4956131;28;20209;-81
2023/07/08 11:31:44;;;;;;;5.18;3.10;;;;;;;31.88;25.76;95917.72;4957943;28;20196;-83
2023/07/08 11:34:10;;;;;;;4.55;3.50;;;;;;;32.09;25.34;95916.56;4972813;28;20199;-82
2023/07/08 11:36:37;;;;;;;8.52;3.83;;;;;;;32.08;25.42;95914.16;4958464;28;20216;-83
2023/07/08 11:39:02;;;;;;;12.02;3.28;;;;;;;31.80;25.88;95908.31;4972983;28;20279;-83